Time;durP1;ratioP1;P1;durP2;ratioP2;P2;SDS_P1;SDS_P2;PMS_P1;PMS_P2;Temp;Humidity;BMP_temperature;BMP_pressure;BME280_temperature;BME280_humidity;BME280_pressure;Samples;Min_cycle;Max_cycle;Signal;HPM_P1;HPM_P2
2022/09/21 00:01:08;;;;;;;2.05;0.68;;;;;;;;;;2085017;28;20033;-79
2022/09/21 00:02:27;;;;;;;0.70;0.50;;;;;;;;;;2085653;28;20029;-79
2022/09/21 00:03:46;;;;;;;1.63;0.60;;;;;;;;;;2085561;28;20075;-78
2022/09/21 00:05:05;;;;;;;1.15;0.50;;;;;;;;;;2084758;28;22286;-80
2022/09/21 00:06:26;;;;;;;2.40;0.75;;;;;;;;;;2083784;28;20037;-79
2022/09/21 00:07:45;;;;;;;2.15;0.80;;;;;;;;;;2083615;28;20025;-79
2022/09/21 00:09:04;;;;;;;2.88;0.80;;;;;;;;;;2084956;28;20029;-79
2022/09/21 00:10:23;;;;;;;1.70;0.50;;;;;;;;;;2085628;28;20041;-80
2022/09/21 00:11:42;;;;;;;1.10;0.70;;;;;;;;;;2085355;28;20029;-78
2022/09/21 00:13:03;;;;;;;0.50;0.50;;;;;;;;;;2082550;28;20477;-78
2022/09/21 00:14:23;;;;;;;1.60;0.60;;;;;;;;;;2087119;28;20041;-79
2022/09/21 00:15:41;;;;;;;1.85;0.80;;;;;;;;;;2084682;28;20025;-79
2022/09/21 00:17:00;;;;;;;0.88;0.50;;;;;;;;;;2087790;28;20017;-79
2022/09/21 00:18:19;;;;;;;1.88;0.70;;;;;;;;;;2085359;28;20517;-79
2022/09/21 00:19:39;;;;;;;3.17;0.60;;;;;;;;;;2087445;28;20025;-79
2022/09/21 00:20:57;;;;;;;0.95;0.55;;;;;;;;;;2086261;28;20029;-79
2022/09/21 00:22:16;;;;;;;0.50;0.47;;;;;;;;;;2086852;28;20389;-78
2022/09/21 00:23:35;;;;;;;1.45;0.52;;;;;;;;;;2087114;28;20029;-79
2022/09/21 00:24:55;;;;;;;5.55;0.70;;;;;;;;;;2085036;28;20032;-79
2022/09/21 00:26:15;;;;;;;0.90;0.50;;;;;;;;;;2087658;28;20626;-79
2022/09/21 00:27:35;;;;;;;2.05;0.60;;;;;;;;;;2093197;28;20040;-79
2022/09/21 00:28:56;;;;;;;0.90;0.50;;;;;;;;;;2090859;28;20063;-79
2022/09/21 00:30:14;;;;;;;2.72;0.70;;;;;;;;;;2085661;28;20029;-78
2022/09/21 00:31:34;;;;;;;2.38;1.00;;;;;;;;;;2086098;28;20148;-79
2022/09/21 00:32:53;;;;;;;2.70;1.02;;;;;;;;;;2087080;28;20029;-79
2022/09/21 00:34:11;;;;;;;0.63;0.57;;;;;;;;;;2087748;28;20029;-79
2022/09/21 00:35:30;;;;;;;5.82;0.77;;;;;;;;;;2085685;28;20037;-79
2022/09/21 00:36:50;;;;;;;0.50;0.50;;;;;;;;;;2087520;28;20025;-78
2022/09/21 00:38:09;;;;;;;1.10;0.45;;;;;;;;;;2085367;28;20484;-78
2022/09/21 00:39:28;;;;;;;1.15;0.50;;;;;;;;;;2082165;28;20025;-78
2022/09/21 00:40:46;;;;;;;2.17;0.70;;;;;;;;;;2083067;28;20410;-80
2022/09/21 00:42:09;;;;;;;1.17;0.50;;;;;;;;;;2085619;28;20060;-78
2022/09/21 00:43:28;;;;;;;3.75;1.00;;;;;;;;;;2095806;28;20524;-79
2022/09/21 00:44:47;;;;;;;3.75;0.70;;;;;;;;;;2090890;28;20041;-77
2022/09/21 00:46:14;;;;;;;1.00;0.65;;;;;;;;;;2087453;28;20033;-78
2022/09/21 00:47:38;;;;;;;1.48;0.65;;;;;;;;;;2086138;28;20033;-78
2022/09/21 00:48:57;;;;;;;1.85;0.50;;;;;;;;;;2082343;28;20037;-78
2022/09/21 00:50:18;;;;;;;1.30;0.63;;;;;;;;;;2076874;28;20029;-78
2022/09/21 00:51:36;;;;;;;0.85;0.63;;;;;;;;;;2084291;28;20088;-77
2022/09/21 00:52:56;;;;;;;1.98;1.02;;;;;;;;;;2088532;28;20036;-77
2022/09/21 00:54:28;;;;;;;2.67;0.73;;;;;;;;;;2083290;28;20033;-77
2022/09/21 00:55:50;;;;;;;3.17;1.00;;;;;;;;;;2084816;28;20029;-78
2022/09/21 00:57:10;;;;;;;1.38;0.77;;;;;;;;;;2083428;28;20025;-78
2022/09/21 00:58:31;;;;;;;3.70;0.70;;;;;;;;;;2085721;28;20033;-78
2022/09/21 00:59:52;;;;;;;2.85;0.80;;;;;;;;;;2093244;28;20029;-79
2022/09/21 01:01:14;;;;;;;1.08;0.77;;;;;;;;;;2084371;28;20025;-78
2022/09/21 01:02:33;;;;;;;1.92;0.70;;;;;;;;;;2086730;28;20033;-77
2022/09/21 01:03:56;;;;;;;1.10;0.57;;;;;;;;;;2085674;28;20029;-78
2022/09/21 01:05:15;;;;;;;6.32;1.23;;;;;;;;;;2086579;28;20131;-78
2022/09/21 01:06:36;;;;;;;3.97;0.63;;;;;;;;;;2085990;28;20029;-78
2022/09/21 01:07:57;;;;;;;2.03;0.70;;;;;;;;;;2086661;28;20029;-78
2022/09/21 01:09:16;;;;;;;2.78;0.93;;;;;;;;;;2084148;28;20029;-78
2022/09/21 01:10:51;;;;;;;2.55;0.60;;;;;;;;;;2087821;28;20037;-77
2022/09/21 01:12:20;;;;;;;1.58;0.73;;;;;;;;;;2084357;28;20057;-77
2022/09/21 01:13:50;;;;;;;1.10;0.63;;;;;;;;;;2084592;28;20029;-77
2022/09/21 01:15:09;;;;;;;2.58;0.63;;;;;;;;;;2084806;28;21301;-77
2022/09/21 01:16:54;;;;;;;3.70;0.80;;;;;;;;;;2087538;28;20037;-77
2022/09/21 01:18:23;;;;;;;1.38;0.60;;;;;;;;;;2072742;28;20033;-78
2022/09/21 01:19:56;;;;;;;0.73;0.73;;;;;;;;;;2084174;28;20021;-78
2022/09/21 01:21:17;;;;;;;0.57;0.57;;;;;;;;;;2086988;28;20029;-77
2022/09/21 01:22:42;;;;;;;0.63;0.40;;;;;;;;;;2085794;28;20089;-78
2022/09/21 01:24:34;;;;;;;0.52;0.52;;;;;;;;;;2082644;28;20025;-79
2022/09/21 01:25:53;;;;;;;2.40;0.65;;;;;;;;;;2036630;29;20020;-78
2022/09/21 01:27:23;;;;;;;0.70;0.60;;;;;;;;;;2081264;28;20017;-80
2022/09/21 01:29:08;;;;;;;0.70;0.60;;;;;;;;;;2092860;28;20036;-79
2022/09/21 01:30:28;;;;;;;1.73;0.80;;;;;;;;;;2084521;28;20029;-77
2022/09/21 01:31:47;;;;;;;1.58;0.95;;;;;;;;;;2081819;28;20024;-78
2022/09/21 01:33:27;;;;;;;1.63;0.77;;;;;;;;;;2084715;28;20045;-78
2022/09/21 01:34:55;;;;;;;1.80;0.60;;;;;;;;;;2086956;28;20025;-78
2022/09/21 01:36:17;;;;;;;0.93;0.70;;;;;;;;;;2086382;28;20033;-78
2022/09/21 01:37:39;;;;;;;1.40;0.80;;;;;;;;;;2085714;28;20513;-78
2022/09/21 01:39:01;;;;;;;2.00;0.52;;;;;;;;;;2086120;28;20021;-78
2022/09/21 01:40:24;;;;;;;2.92;0.50;;;;;;;;;;2087110;28;20533;-79
2022/09/21 01:41:44;;;;;;;1.00;0.85;;;;;;;;;;2080990;28;20033;-78
2022/09/21 01:43:04;;;;;;;0.85;0.60;;;;;;;;;;2089365;28;20037;-78
2022/09/21 01:44:26;;;;;;;2.67;0.50;;;;;;;;;;2089360;28;20049;-78
2022/09/21 01:45:47;;;;;;;1.23;0.70;;;;;;;;;;2085613;28;20045;-79
2022/09/21 01:47:08;;;;;;;1.23;0.80;;;;;;;;;;2084789;28;20037;-79
2022/09/21 01:48:28;;;;;;;1.35;0.70;;;;;;;;;;2086172;28;20029;-78
2022/09/21 01:49:50;;;;;;;3.13;0.60;;;;;;;;;;2085574;28;20033;-80
2022/09/21 01:51:10;;;;;;;3.17;0.75;;;;;;;;;;2087116;28;20029;-79
2022/09/21 01:52:32;;;;;;;1.00;0.88;;;;;;;;;;2093728;28;20099;-78
2022/09/21 01:54:10;;;;;;;5.68;0.80;;;;;;;;;;2087847;28;20341;-78
2022/09/21 01:55:37;;;;;;;2.35;0.68;;;;;;;;;;2088726;28;20108;-78
2022/09/21 01:57:06;;;;;;;0.50;0.45;;;;;;;;;;2086266;28;20116;-78
2022/09/21 01:58:54;;;;;;;1.73;0.68;;;;;;;;;;2088622;28;20365;-78
2022/09/21 02:00:14;;;;;;;2.00;0.82;;;;;;;;;;2054529;28;20027;-78
2022/09/21 02:01:36;;;;;;;1.00;0.80;;;;;;;;;;2064969;28;20104;-78
2022/09/21 02:02:58;;;;;;;0.95;0.57;;;;;;;;;;2084419;28;20045;-78
2022/09/21 02:04:17;;;;;;;2.38;0.75;;;;;;;;;;2084932;28;20017;-79
2022/09/21 02:05:36;;;;;;;1.30;0.70;;;;;;;;;;2085652;28;20048;-78
2022/09/21 02:06:55;;;;;;;1.45;0.77;;;;;;;;;;2087770;28;20021;-78
2022/09/21 02:08:14;;;;;;;0.75;0.50;;;;;;;;;;2087922;28;20029;-78
2022/09/21 02:09:34;;;;;;;1.33;0.60;;;;;;;;;;2086506;28;20428;-79
2022/09/21 02:10:54;;;;;;;1.08;0.57;;;;;;;;;;2085130;28;20037;-79
2022/09/21 02:12:13;;;;;;;2.03;0.57;;;;;;;;;;2085433;28;20522;-79
2022/09/21 02:13:35;;;;;;;1.27;0.73;;;;;;;;;;2081764;28;20449;-80
2022/09/21 02:14:54;;;;;;;1.05;0.63;;;;;;;;;;2082232;28;20028;-79
2022/09/21 02:16:20;;;;;;;4.18;0.75;;;;;;;;;;2088835;28;20025;-79
2022/09/21 02:17:57;;;;;;;0.60;0.50;;;;;;;;;;2083658;28;20128;-80
2022/09/21 02:19:16;;;;;;;0.90;0.60;;;;;;;;;;2086254;28;20029;-79
2022/09/21 02:20:39;;;;;;;1.33;0.50;;;;;;;;;;2088722;28;20033;-79
2022/09/21 02:22:04;;;;;;;0.98;0.50;;;;;;;;;;2095247;28;20072;-79
2022/09/21 02:23:53;;;;;;;1.65;0.43;;;;;;;;;;2089675;28;20048;-79
2022/09/21 02:25:17;;;;;;;0.77;0.50;;;;;;;;;;2067521;28;20028;-79
2022/09/21 02:26:41;;;;;;;1.27;0.52;;;;;;;;;;2075722;28;20482;-79
2022/09/21 02:28:03;;;;;;;4.65;0.50;;;;;;;;;;2086532;28;20049;-80
2022/09/21 02:29:31;;;;;;;1.60;0.55;;;;;;;;;;2088905;28;20025;-80
2022/09/21 02:30:54;;;;;;;2.47;0.68;;;;;;;;;;2087160;28;20029;-79
2022/09/21 02:32:25;;;;;;;0.70;0.47;;;;;;;;;;2087152;28;20081;-79
2022/09/21 02:33:54;;;;;;;2.05;0.40;;;;;;;;;;2084939;28;20532;-79
2022/09/21 02:35:18;;;;;;;3.50;0.68;;;;;;;;;;2088906;28;20029;-79
2022/09/21 02:36:55;;;;;;;3.22;0.60;;;;;;;;;;2087298;28;20025;-79
2022/09/21 02:38:29;;;;;;;1.48;0.70;;;;;;;;;;2087538;28;20029;-79
2022/09/21 02:39:51;;;;;;;3.50;0.50;;;;;;;;;;2094176;28;20020;-79
2022/09/21 02:41:15;;;;;;;1.35;0.50;;;;;;;;;;2085393;28;20035;-79
2022/09/21 02:42:41;;;;;;;0.77;0.45;;;;;;;;;;2086239;28;20124;-80
2022/09/21 02:44:05;;;;;;;1.08;0.60;;;;;;;;;;2085572;28;20107;-79
2022/09/21 02:45:27;;;;;;;2.33;0.68;;;;;;;;;;2085273;28;20037;-79
2022/09/21 02:46:50;;;;;;;1.58;0.55;;;;;;;;;;2089740;28;20060;-79
2022/09/21 02:48:14;;;;;;;1.13;0.40;;;;;;;;;;2091540;28;20029;-79
2022/09/21 02:49:36;;;;;;;1.00;0.70;;;;;;;;;;2088254;28;20029;-79
2022/09/21 02:51:02;;;;;;;0.50;0.50;;;;;;;;;;2087464;28;20051;-79
2022/09/21 02:52:22;;;;;;;1.33;0.30;;;;;;;;;;2086110;28;20064;-80
2022/09/21 02:53:41;;;;;;;4.25;0.70;;;;;;;;;;2079942;28;20489;-80
2022/09/21 02:55:01;;;;;;;5.45;0.68;;;;;;;;;;2081781;28;20409;-79
2022/09/21 02:56:20;;;;;;;4.10;0.93;;;;;;;;;;2085603;28;20025;-79
2022/09/21 02:57:39;;;;;;;2.30;0.50;;;;;;;;;;2090252;28;20074;-79
2022/09/21 02:59:00;;;;;;;2.65;0.77;;;;;;;;;;2090944;28;20033;-79
2022/09/21 03:00:20;;;;;;;1.42;0.63;;;;;;;;;;2086823;28;20448;-78
2022/09/21 03:01:40;;;;;;;2.88;0.77;;;;;;;;;;2088590;28;20021;-78
2022/09/21 03:02:59;;;;;;;1.15;0.57;;;;;;;;;;2087094;28;20053;-78
2022/09/21 03:04:18;;;;;;;3.95;0.65;;;;;;;;;;2087997;28;20017;-78
2022/09/21 03:05:37;;;;;;;1.48;0.50;;;;;;;;;;2085536;28;20025;-78
2022/09/21 03:06:56;;;;;;;2.95;0.70;;;;;;;;;;2085925;28;20033;-79
2022/09/21 03:08:15;;;;;;;0.30;0.30;;;;;;;;;;2087405;28;20033;-79
2022/09/21 03:09:34;;;;;;;0.68;0.40;;;;;;;;;;2085230;28;20111;-79
2022/09/21 03:10:53;;;;;;;2.47;0.38;;;;;;;;;;2084808;28;20029;-80
2022/09/21 03:12:12;;;;;;;2.42;0.55;;;;;;;;;;2085169;28;20033;-78
2022/09/21 03:13:32;;;;;;;0.90;0.52;;;;;;;;;;2087766;28;20029;-79
2022/09/21 03:14:51;;;;;;;0.50;0.50;;;;;;;;;;2086268;28;20025;-79
2022/09/21 03:16:11;;;;;;;2.35;0.43;;;;;;;;;;2089180;28;20033;-79
2022/09/21 03:17:30;;;;;;;1.83;0.75;;;;;;;;;;2086420;28;20053;-79
2022/09/21 03:18:49;;;;;;;2.83;0.60;;;;;;;;;;2085662;28;20033;-79
2022/09/21 03:20:09;;;;;;;1.50;0.70;;;;;;;;;;2087130;28;20034;-79
2022/09/21 03:21:28;;;;;;;3.00;0.70;;;;;;;;;;2084460;28;20385;-80
2022/09/21 03:22:47;;;;;;;1.50;0.73;;;;;;;;;;2086495;28;20033;-80
2022/09/21 03:24:06;;;;;;;4.32;0.73;;;;;;;;;;2086985;28;20037;-79
2022/09/21 03:25:26;;;;;;;2.28;0.80;;;;;;;;;;2085843;28;20029;-79
2022/09/21 03:26:45;;;;;;;2.83;0.88;;;;;;;;;;2089221;28;20025;-78
2022/09/21 03:28:04;;;;;;;2.58;0.80;;;;;;;;;;2089060;28;20033;-79
2022/09/21 03:29:23;;;;;;;2.25;0.60;;;;;;;;;;2087437;28;20041;-79
2022/09/21 03:30:42;;;;;;;3.47;0.40;;;;;;;;;;2088682;28;20429;-79
2022/09/21 03:32:01;;;;;;;1.55;0.50;;;;;;;;;;2087125;28;20040;-79
2022/09/21 03:33:20;;;;;;;1.50;0.60;;;;;;;;;;2087109;28;20040;-79
2022/09/21 03:34:39;;;;;;;0.63;0.63;;;;;;;;;;2087708;28;20041;-79
2022/09/21 03:35:58;;;;;;;0.60;0.47;;;;;;;;;;2088732;28;20036;-79
2022/09/21 03:37:17;;;;;;;1.77;0.70;;;;;;;;;;2086795;28;20072;-79
2022/09/21 03:38:36;;;;;;;4.53;0.60;;;;;;;;;;2085994;28;20029;-79
2022/09/21 03:39:55;;;;;;;2.03;0.68;;;;;;;;;;2085939;28;20056;-78
2022/09/21 03:41:14;;;;;;;1.38;0.70;;;;;;;;;;2083790;28;20033;-79
2022/09/21 03:42:33;;;;;;;2.90;0.57;;;;;;;;;;2085757;28;20049;-78
2022/09/21 03:43:52;;;;;;;2.33;0.65;;;;;;;;;;2082669;28;21122;-80
2022/09/21 03:45:11;;;;;;;2.05;0.70;;;;;;;;;;2085824;28;20029;-81
2022/09/21 03:46:34;;;;;;;0.60;0.60;;;;;;;;;;2087016;28;20033;-79
2022/09/21 03:47:56;;;;;;;3.90;0.75;;;;;;;;;;2086744;28;20543;-79
2022/09/21 03:49:15;;;;;;;;;;;;;;;;;;2086895;28;20033;-78
2022/09/21 03:50:35;;;;;;;1.67;0.60;;;;;;;;;;2087196;28;19956;-79
2022/09/21 03:51:54;;;;;;;0.85;0.60;;;;;;;;;;2084769;28;20029;-79
2022/09/21 03:53:14;;;;;;;1.48;0.65;;;;;;;;;;2088227;28;20025;-79
2022/09/21 03:54:33;;;;;;;1.40;0.82;;;;;;;;;;2085676;28;20409;-78
2022/09/21 03:55:52;;;;;;;0.90;0.50;;;;;;;;;;2089131;28;20025;-79
2022/09/21 03:57:11;;;;;;;0.57;0.40;;;;;;;;;;2086764;28;20029;-79
2022/09/21 03:58:30;;;;;;;2.97;0.50;;;;;;;;;;2088477;28;20033;-80
2022/09/21 03:59:49;;;;;;;0.50;0.50;;;;;;;;;;2088612;28;20527;-78
2022/09/21 04:01:07;;;;;;;0.60;0.50;;;;;;;;;;2086683;28;20425;-78
2022/09/21 04:02:26;;;;;;;3.13;0.80;;;;;;;;;;2090047;28;20028;-79
2022/09/21 04:03:45;;;;;;;1.65;0.50;;;;;;;;;;2091033;28;20029;-78
2022/09/21 04:05:05;;;;;;;1.20;0.60;;;;;;;;;;2087025;28;20562;-79
2022/09/21 04:06:25;;;;;;;2.15;0.50;;;;;;;;;;2088995;28;20037;-79
2022/09/21 04:07:44;;;;;;;2.85;0.80;;;;;;;;;;2087481;28;20025;-79
2022/09/21 04:09:03;;;;;;;1.38;0.60;;;;;;;;;;2087977;28;20025;-79
2022/09/21 04:10:25;;;;;;;2.22;0.60;;;;;;;;;;2087670;28;20538;-79
2022/09/21 04:11:45;;;;;;;3.60;0.77;;;;;;;;;;2086037;28;20041;-80
2022/09/21 04:13:05;;;;;;;2.65;0.50;;;;;;;;;;2088634;28;20514;-80
2022/09/21 04:14:24;;;;;;;3.25;1.17;;;;;;;;;;2086604;28;20030;-80
2022/09/21 04:15:43;;;;;;;0.60;0.50;;;;;;;;;;2086530;28;20037;-79
2022/09/21 04:17:01;;;;;;;0.90;0.60;;;;;;;;;;2089464;28;20489;-79
2022/09/21 04:18:20;;;;;;;0.90;0.70;;;;;;;;;;2088081;28;20104;-80
2022/09/21 04:19:39;;;;;;;2.70;0.68;;;;;;;;;;2085030;28;20033;-78
2022/09/21 04:20:58;;;;;;;0.68;0.47;;;;;;;;;;2087161;28;20037;-78
2022/09/21 04:22:24;;;;;;;3.03;1.00;;;;;;;;;;2086686;28;20061;-77
2022/09/21 04:23:44;;;;;;;2.08;0.52;;;;;;;;;;2084932;28;20037;-79
2022/09/21 04:25:04;;;;;;;2.50;0.80;;;;;;;;;;2084903;28;20044;-81
2022/09/21 04:26:28;;;;;;;3.08;0.80;;;;;;;;;;2080991;28;20037;-80
2022/09/21 04:27:47;;;;;;;1.25;0.60;;;;;;;;;;2082940;28;20406;-80
2022/09/21 04:29:06;;;;;;;4.97;1.00;;;;;;;;;;2083750;28;20108;-83
2022/09/21 04:30:25;;;;;;;1.85;0.70;;;;;;;;;;2081052;28;20588;-80
2022/09/21 04:31:44;;;;;;;1.75;0.80;;;;;;;;;;2085977;28;20037;-81
2022/09/21 04:33:03;;;;;;;0.75;0.75;;;;;;;;;;2086026;28;20059;-81
2022/09/21 04:34:22;;;;;;;1.08;0.50;;;;;;;;;;2088295;28;20033;-80
2022/09/21 04:35:41;;;;;;;1.02;0.47;;;;;;;;;;2082015;28;20048;-80
2022/09/21 04:37:10;;;;;;;2.00;0.47;;;;;;;;;;2084695;28;20115;-83
2022/09/21 04:38:30;;;;;;;1.65;0.70;;;;;;;;;;2088441;28;20029;-79
2022/09/21 04:39:52;;;;;;;0.95;0.80;;;;;;;;;;2081127;28;20760;-81
2022/09/21 04:41:11;;;;;;;1.27;0.93;;;;;;;;;;2083547;28;20055;-80
2022/09/21 04:42:30;;;;;;;2.35;1.05;;;;;;;;;;2083810;28;20494;-78
2022/09/21 04:43:49;;;;;;;4.03;1.08;;;;;;;;;;2083599;28;20033;-81
2022/09/21 04:45:08;;;;;;;2.25;1.00;;;;;;;;;;2082127;28;20085;-79
2022/09/21 04:46:27;;;;;;;4.00;1.15;;;;;;;;;;2086684;28;20029;-82
2022/09/21 04:47:46;;;;;;;2.35;1.05;;;;;;;;;;2085166;28;20400;-81
2022/09/21 04:49:05;;;;;;;2.35;0.98;;;;;;;;;;2079444;28;20049;-79
2022/09/21 04:50:24;;;;;;;4.85;1.20;;;;;;;;;;2084105;28;20037;-83
2022/09/21 04:51:43;;;;;;;3.63;0.90;;;;;;;;;;2087233;28;20037;-82
2022/09/21 04:53:03;;;;;;;1.05;0.75;;;;;;;;;;2085509;28;20021;-82
2022/09/21 04:54:28;;;;;;;1.17;0.90;;;;;;;;;;2085203;28;20048;-82
2022/09/21 04:55:49;;;;;;;0.98;0.70;;;;;;;;;;2087126;28;20398;-83
2022/09/21 04:57:08;;;;;;;2.92;0.90;;;;;;;;;;2078484;28;20045;-83
2022/09/21 04:58:31;;;;;;;3.63;1.00;;;;;;;;;;2084871;28;20481;-83
2022/09/21 04:59:50;;;;;;;1.73;0.88;;;;;;;;;;2084131;28;20030;-84
2022/09/21 05:01:10;;;;;;;1.25;0.82;;;;;;;;;;2087060;28;20037;-81
2022/09/21 05:02:37;;;;;;;3.53;1.30;;;;;;;;;;2082355;28;20025;-84
2022/09/21 05:04:01;;;;;;;1.17;1.05;;;;;;;;;;2084910;28;20460;-83
2022/09/21 05:05:33;;;;;;;1.38;1.05;;;;;;;;;;2085140;28;20021;-82
2022/09/21 05:06:52;;;;;;;3.03;1.13;;;;;;;;;;2086967;28;20420;-83
2022/09/21 05:08:12;;;;;;;2.47;1.30;;;;;;;;;;2080938;28;20440;-82
2022/09/21 05:11:20;;;;;;;1.83;1.08;;;;;;;;;;2069618;28;20029;-81
2022/09/21 05:12:42;;;;;;;1.92;0.82;;;;;;;;;;2085364;28;20033;-80
2022/09/21 05:14:04;;;;;;;2.10;1.00;;;;;;;;;;2086404;28;20071;-81
2022/09/21 05:15:23;;;;;;;1.00;0.73;;;;;;;;;;2085395;28;20033;-82
2022/09/21 05:16:48;;;;;;;2.13;0.98;;;;;;;;;;2087908;28;20017;-81
2022/09/21 05:18:07;;;;;;;1.58;1.00;;;;;;;;;;2081897;28;20041;-82
2022/09/21 05:19:29;;;;;;;2.33;0.85;;;;;;;;;;2084651;28;20065;-80
2022/09/21 05:20:58;;;;;;;3.20;1.02;;;;;;;;;;2090563;28;20522;-81
2022/09/21 05:22:18;;;;;;;2.38;0.90;;;;;;;;;;2085265;28;20025;-81
2022/09/21 05:23:37;;;;;;;2.63;0.77;;;;;;;;;;2086877;28;20025;-82
2022/09/21 05:25:07;;;;;;;3.50;0.98;;;;;;;;;;2088200;28;20044;-85
2022/09/21 05:26:29;;;;;;;1.33;1.00;;;;;;;;;;2089290;28;20131;-83
2022/09/21 05:27:48;;;;;;;0.85;0.77;;;;;;;;;;2091656;28;20463;-82
2022/09/21 05:29:07;;;;;;;2.17;1.10;;;;;;;;;;2090853;28;20025;-84
2022/09/21 05:30:26;;;;;;;2.00;1.58;;;;;;;;;;2089909;28;20025;-83
2022/09/21 05:31:53;;;;;;;1.60;0.90;;;;;;;;;;2091027;28;20108;-82
2022/09/21 05:33:13;;;;;;;4.10;2.00;;;;;;;;;;2092227;28;20053;-81
2022/09/21 05:34:35;;;;;;;2.60;1.60;;;;;;;;;;2087254;28;20032;-81
2022/09/21 05:36:02;;;;;;;4.53;2.22;;;;;;;;;;2089937;28;20080;-82
2022/09/21 05:37:43;;;;;;;2.63;1.48;;;;;;;;;;2091713;28;20025;-81
2022/09/21 05:39:03;;;;;;;2.10;1.80;;;;;;;;;;2098595;28;20044;-82
2022/09/21 05:40:22;;;;;;;10.38;3.90;;;;;;;;;;2086159;28;20025;-82
2022/09/21 05:41:41;;;;;;;13.80;4.97;;;;;;;;;;2089096;28;20025;-81
2022/09/21 05:43:01;;;;;;;6.43;3.58;;;;;;;;;;2089660;28;20592;-81
2022/09/21 05:44:33;;;;;;;5.97;3.20;;;;;;;;;;2088380;28;20037;-86
2022/09/21 05:45:57;;;;;;;8.05;4.20;;;;;;;;;;2088391;28;20021;-84
2022/09/21 05:47:16;;;;;;;5.78;3.38;;;;;;;;;;2089071;28;20032;-83
2022/09/21 05:48:38;;;;;;;5.03;4.53;;;;;;;;;;2090043;28;20029;-84
2022/09/21 05:50:16;;;;;;;10.00;3.25;;;;;;;;;;2086437;28;20060;-84
2022/09/21 05:51:41;;;;;;;9.27;2.60;;;;;;;;;;2084623;28;20033;-83
2022/09/21 05:53:09;;;;;;;5.22;2.17;;;;;;;;;;2095074;28;20473;-83
2022/09/21 05:54:46;;;;;;;4.25;1.60;;;;;;;;;;2093882;28;20092;-84
2022/09/21 05:56:11;;;;;;;4.53;1.77;;;;;;;;;;2094290;28;20037;-82
2022/09/21 05:57:42;;;;;;;4.78;1.65;;;;;;;;;;2093197;28;20041;-82
2022/09/21 05:59:04;;;;;;;3.25;1.92;;;;;;;;;;2092759;28;20021;-83
2022/09/21 06:00:23;;;;;;;3.40;1.77;;;;;;;;;;2092922;28;20041;-83
2022/09/21 06:02:09;;;;;;;3.67;1.90;;;;;;;;;;2095145;28;20080;-83
2022/09/21 06:03:34;;;;;;;3.00;1.73;;;;;;;;;;2095609;28;20029;-82
2022/09/21 06:04:55;;;;;;;3.28;1.30;;;;;;;;;;2104256;28;20056;-83
2022/09/21 06:06:18;;;;;;;4.78;1.50;;;;;;;;;;2099358;28;20032;-82
2022/09/21 06:07:37;;;;;;;8.75;2.30;;;;;;;;;;2096383;28;20009;-82
2022/09/21 06:08:57;;;;;;;1.90;1.25;;;;;;;;;;2097326;28;20119;-82
2022/09/21 06:10:16;;;;;;;2.15;1.20;;;;;;;;;;2096760;28;20029;-83
2022/09/21 06:11:35;;;;;;;4.57;1.27;;;;;;;;;;2097650;28;20041;-82
2022/09/21 06:12:56;;;;;;;11.10;1.45;;;;;;;;;;2096086;28;20029;-83
2022/09/21 06:14:15;;;;;;;4.57;1.42;;;;;;;;;;2094396;28;20050;-83
2022/09/21 06:15:38;;;;;;;4.18;1.00;;;;;;;;;;2097289;28;20028;-83
2022/09/21 06:16:59;;;;;;;1.83;1.02;;;;;;;;;;2098703;28;20037;-83
2022/09/21 06:18:18;;;;;;;3.30;1.10;;;;;;;;;;2095890;28;20029;-84
2022/09/21 06:19:38;;;;;;;6.40;1.45;;;;;;;;;;2097587;28;20001;-84
2022/09/21 06:20:57;;;;;;;1.17;1.00;;;;;;;;;;2098350;28;20021;-83
2022/09/21 06:22:16;;;;;;;5.05;1.10;;;;;;;;;;2096201;28;20029;-83
2022/09/21 06:23:35;;;;;;;1.38;0.70;;;;;;;;;;2095367;28;20450;-84
2022/09/21 06:24:54;;;;;;;2.50;1.20;;;;;;;;;;2096959;28;20136;-83
2022/09/21 06:26:13;;;;;;;7.07;1.38;;;;;;;;;;2095547;28;20025;-83
2022/09/21 06:27:32;;;;;;;2.22;1.15;;;;;;;;;;2097336;28;20060;-83
2022/09/21 06:28:51;;;;;;;5.43;1.08;;;;;;;;;;2095682;28;21078;-83
2022/09/21 06:30:10;;;;;;;4.57;1.00;;;;;;;;;;2095344;28;20053;-83
2022/09/21 06:31:29;;;;;;;5.15;1.92;;;;;;;;;;2101098;28;20021;-82
2022/09/21 06:32:51;;;;;;;1.80;0.90;;;;;;;;;;2097611;28;20119;-81
2022/09/21 06:34:13;;;;;;;6.78;1.27;;;;;;;;;;2095584;28;20068;-83
2022/09/21 06:35:33;;;;;;;4.38;1.60;;;;;;;;;;2095953;28;20025;-82
2022/09/21 06:36:52;;;;;;;2.67;1.10;;;;;;;;;;2094792;28;20038;-82
2022/09/21 06:38:11;;;;;;;3.17;0.93;;;;;;;;;;2090150;28;20025;-83
2022/09/21 06:39:33;;;;;;;2.72;1.30;;;;;;;;;;2085837;28;20029;-80
2022/09/21 06:40:52;;;;;;;2.45;1.00;;;;;;;;;;2090262;28;20033;-80
2022/09/21 06:42:11;;;;;;;7.38;1.20;;;;;;;;;;2087513;28;20398;-79
2022/09/21 06:43:33;;;;;;;1.92;0.70;;;;;;;;;;2088515;28;20041;-80
2022/09/21 06:44:54;;;;;;;4.65;1.45;;;;;;;;;;2088879;28;20037;-81
2022/09/21 06:46:13;;;;;;;7.38;1.20;;;;;;;;;;2089043;28;20025;-80
2022/09/21 06:47:32;;;;;;;9.95;1.27;;;;;;;;;;2088581;28;20025;-83
2022/09/21 06:48:50;;;;;;;3.20;0.70;;;;;;;;;;2085834;28;20037;-83
2022/09/21 06:50:14;;;;;;;1.92;0.80;;;;;;;;;;2088722;28;20025;-82
2022/09/21 06:51:35;;;;;;;3.53;1.25;;;;;;;;;;2089886;28;20033;-82
2022/09/21 06:52:54;;;;;;;3.67;1.17;;;;;;;;;;2085441;28;20025;-82
2022/09/21 06:54:13;;;;;;;1.02;0.93;;;;;;;;;;2083345;28;20029;-81
2022/09/21 06:55:33;;;;;;;6.63;1.08;;;;;;;;;;2087578;28;20025;-81
2022/09/21 06:56:51;;;;;;;1.35;0.82;;;;;;;;;;2086156;28;20489;-81
2022/09/21 06:58:13;;;;;;;2.38;0.60;;;;;;;;;;2088714;28;20036;-81
2022/09/21 06:59:32;;;;;;;1.63;1.08;;;;;;;;;;2089281;28;20021;-81
2022/09/21 07:00:52;;;;;;;2.40;0.93;;;;;;;;;;2087606;28;20021;-81
2022/09/21 07:02:11;;;;;;;2.58;0.80;;;;;;;;;;2083417;28;20029;-81
2022/09/21 07:03:30;;;;;;;3.00;0.90;;;;;;;;;;2089058;28;20025;-81
2022/09/21 07:04:50;;;;;;;7.10;1.00;;;;;;;;;;2088226;28;20128;-81
2022/09/21 07:06:14;;;;;;;5.78;0.90;;;;;;;;;;2093726;28;20075;-80
2022/09/21 07:07:35;;;;;;;0.98;0.85;;;;;;;;;;2087519;28;20514;-81
2022/09/21 07:08:54;;;;;;;2.55;0.98;;;;;;;;;;2089037;28;20036;-80
2022/09/21 07:10:12;;;;;;;2.88;0.77;;;;;;;;;;2088878;28;20025;-81
2022/09/21 07:11:31;;;;;;;3.22;0.95;;;;;;;;;;2094007;28;20033;-81
2022/09/21 07:12:51;;;;;;;2.60;0.93;;;;;;;;;;2086746;28;20206;-82
2022/09/21 07:14:10;;;;;;;6.75;0.85;;;;;;;;;;2087375;28;20032;-81
2022/09/21 07:15:30;;;;;;;5.45;0.90;;;;;;;;;;2087661;28;20492;-81
2022/09/21 07:16:49;;;;;;;4.28;1.00;;;;;;;;;;2085172;28;20025;-82
2022/09/21 07:18:11;;;;;;;6.00;0.90;;;;;;;;;;2085230;28;20045;-82
2022/09/21 07:19:30;;;;;;;1.95;1.08;;;;;;;;;;2093462;28;20021;-82
2022/09/21 07:20:49;;;;;;;1.20;1.02;;;;;;;;;;2088148;28;20025;-82
2022/09/21 07:22:08;;;;;;;7.47;1.35;;;;;;;;;;2089585;28;20566;-82
2022/09/21 07:23:27;;;;;;;0.77;0.70;;;;;;;;;;2088324;28;20032;-81
2022/09/21 07:24:45;;;;;;;4.25;1.23;;;;;;;;;;2087295;28;21367;-82
2022/09/21 07:26:09;;;;;;;0.50;0.50;;;;;;;;;;2089375;28;20033;-82
2022/09/21 07:27:29;;;;;;;2.97;0.70;;;;;;;;;;2087923;28;20029;-81
2022/09/21 07:28:48;;;;;;;0.95;0.85;;;;;;;;;;2086977;28;20041;-82
2022/09/21 07:30:07;;;;;;;4.55;0.80;;;;;;;;;;2087611;28;20393;-81
2022/09/21 07:31:26;;;;;;;2.63;0.70;;;;;;;;;;2089131;28;20029;-82
2022/09/21 07:32:45;;;;;;;1.98;0.70;;;;;;;;;;2088796;28;20021;-81
2022/09/21 07:34:04;;;;;;;3.90;0.95;;;;;;;;;;2089259;28;20497;-81
2022/09/21 07:35:23;;;;;;;3.85;1.00;;;;;;;;;;2089107;28;20505;-82
2022/09/21 07:36:42;;;;;;;1.70;0.80;;;;;;;;;;2088404;28;20108;-82
2022/09/21 07:38:04;;;;;;;5.32;1.20;;;;;;;;;;2084320;28;20049;-82
2022/09/21 07:39:23;;;;;;;4.90;1.00;;;;;;;;;;2088671;28;20032;-81
2022/09/21 07:40:42;;;;;;;8.32;1.17;;;;;;;;;;2089039;28;20025;-79
2022/09/21 07:42:01;;;;;;;2.20;1.10;;;;;;;;;;2088849;28;20025;-82
2022/09/21 07:43:20;;;;;;;3.58;1.10;;;;;;;;;;2087642;28;20049;-83
2022/09/21 07:44:39;;;;;;;5.40;1.10;;;;;;;;;;2086458;28;20497;-82
2022/09/21 07:45:58;;;;;;;3.83;0.88;;;;;;;;;;2094020;28;20033;-83
2022/09/21 07:47:17;;;;;;;2.33;1.08;;;;;;;;;;2090355;28;20029;-81
2022/09/21 07:48:36;;;;;;;1.13;0.80;;;;;;;;;;2088608;28;20517;-82
2022/09/21 07:49:55;;;;;;;4.65;0.98;;;;;;;;;;2086054;28;20107;-80
2022/09/21 07:51:14;;;;;;;5.50;0.90;;;;;;;;;;2084614;28;20064;-82
2022/09/21 07:52:34;;;;;;;4.13;0.60;;;;;;;;;;2087345;28;20037;-81
2022/09/21 07:53:54;;;;;;;3.08;0.75;;;;;;;;;;2086368;28;20041;-80
2022/09/21 07:55:13;;;;;;;3.25;0.52;;;;;;;;;;2086162;28;20119;-82
2022/09/21 07:56:32;;;;;;;0.55;0.40;;;;;;;;;;2083387;28;20522;-83
2022/09/21 07:59:31;;;;;;;0.80;0.55;;;;;;;;;;2088243;28;20033;-81
2022/09/21 08:00:50;;;;;;;1.58;0.60;;;;;;;;;;2086109;28;20489;-82
2022/09/21 08:02:09;;;;;;;3.65;1.02;;;;;;;;;;2087723;28;20055;-81
2022/09/21 08:03:28;;;;;;;4.93;0.90;;;;;;;;;;2085039;28;20478;-81
2022/09/21 08:04:50;;;;;;;1.30;0.73;;;;;;;;;;2084429;28;20025;-81
2022/09/21 08:06:09;;;;;;;5.63;0.90;;;;;;;;;;2085724;28;20029;-81
2022/09/21 08:07:28;;;;;;;2.40;0.80;;;;;;;;;;2082592;28;20170;-81
2022/09/21 08:08:48;;;;;;;3.85;1.00;;;;;;;;;;2082946;28;20028;-81
2022/09/21 08:10:07;;;;;;;4.40;1.27;;;;;;;;;;2087139;28;20036;-81
2022/09/21 08:11:28;;;;;;;2.25;0.80;;;;;;;;;;2087616;28;20021;-81
2022/09/21 08:12:47;;;;;;;3.75;1.08;;;;;;;;;;2086235;28;20024;-81